Terminal Aerodrome Forecast
Issued by NWS

Home | Current Version | Previous Version | Text Only | Print | Product List | Glossary On
Versions: 1 2 3 4 5 6 7 8 9 10 11 12 13
000
FTUS44 KBMX 271135
TAFTOI
TAF
KTOI 271135Z 2712/2812 17012G20KT P6SM VCTS BKN015CB OVC100
     FM271330 18012G20KT 4SM TSRA BKN012CB OVC100
     FM271600 23012KT P6SM OVC015
     FM272200 25007KT P6SM BKN050
     FM280200 VRB03KT P6SM SCT015
     FM280600 18003KT 2SM BR SCT002 OVC005=

USA.gov is the U.S. government's official web portal to all federal, state and local government web resources and services.